Dreka, Texas
Current Conditions -  °F | °C
As of 11:15 PM on Friday 19 Dec 2014 (Local Time) from KOCH Reporting Station
Overcast Overcast  
Wind Chill: 44°   Ceiling: 600
Heat Index: 46°   Visibility: 9mi
Dew Point: 45°   Wind: 5mph
Humidity: 93%   Direction: 20°NNE
Pressure: 30.19"   Gusts: NA
Location:  31.7022°N, 93.9592°W
Report Text: KOCH 200515Z AUTO 02004KT 9SM OVC006 08/07 A3019 RMK AO1
Loading
Personal Weather Stations






























Interactive Weather Map New forecast layout! Learn more

10-Day Weather Forecast

Advertisements
Track Severe Weather on mobile